Time;durP1;ratioP1;P1;durP2;ratioP2;P2;SDS_P1;SDS_P2;PMS_P1;PMS_P2;Temp;Humidity;BMP_temperature;BMP_pressure;BME280_temperature;BME280_humidity;BME280_pressure;Samples;Min_cycle;Max_cycle;Signal;HPM_P1;HPM_P2
2022/04/10 00:01:16;;;;;;;3.50;2.30;;;;;;;9.85;74.49;99342.97;1707056;83;20983;-75
2022/04/10 00:03:45;;;;;;;3.15;2.10;;;;;;;9.82;74.64;99353.41;1686641;83;21138;-74
2022/04/10 00:06:12;;;;;;;3.08;2.15;;;;;;;9.78;74.55;99355.05;1696955;82;21125;-73
2022/04/10 00:08:41;;;;;;;3.92;2.50;;;;;;;9.75;74.62;99358.27;1699455;82;21038;-73
2022/04/10 00:11:10;;;;;;;2.95;2.25;;;;;;;9.71;74.71;99363.91;1701415;82;21054;-73
2022/04/10 00:13:39;;;;;;;3.17;2.17;;;;;;;9.68;74.78;99357.81;1673820;84;21050;-73
2022/04/10 00:16:07;;;;;;;4.50;2.47;;;;;;;9.63;74.79;99362.09;1680515;82;21070;-74
2022/04/10 00:18:36;;;;;;;3.55;2.40;;;;;;;9.62;74.87;99363.17;1681905;82;21028;-74
2022/04/10 00:21:04;;;;;;;4.03;2.30;;;;;;;9.61;74.73;99365.59;1691013;82;21047;-75
2022/04/10 00:23:32;;;;;;;4.12;2.27;;;;;;;9.59;74.50;99380.27;1686631;82;21210;-73
2022/04/10 00:26:00;;;;;;;3.85;2.30;;;;;;;9.57;74.35;99389.06;1705071;81;21663;-74
2022/04/10 00:28:35;;;;;;;3.22;2.32;;;;;;;9.55;73.99;99376.03;1633754;83;9999594;-73
2022/04/10 00:31:02;;;;;;;3.95;2.55;;;;;;;9.55;73.74;99389.36;1705878;83;21640;-74
2022/04/10 00:33:31;;;;;;;4.12;2.42;;;;;;;9.55;73.29;99388.56;1687271;83;21593;-71
2022/04/10 00:35:59;;;;;;;3.77;2.30;;;;;;;9.56;73.11;99394.14;1716673;83;21117;-70
2022/04/10 00:38:26;;;;;;;4.30;2.30;;;;;;;9.54;72.67;99386.95;1692233;84;21035;-71
2022/04/10 00:40:53;;;;;;;2.62;1.82;;;;;;;9.53;72.38;99390.70;1699296;82;21123;-71
2022/04/10 00:43:21;;;;;;;3.80;2.40;;;;;;;9.51;71.93;99378.17;1702593;82;21142;-71
2022/04/10 00:45:50;;;;;;;4.03;2.10;;;;;;;9.50;71.66;99383.26;1722586;83;21081;-72
2022/04/10 00:48:18;;;;;;;3.22;2.27;;;;;;;9.47;71.52;99380.61;1677249;83;21070;-72
2022/04/10 00:51:40;;;;;;;3.47;2.40;;;;;;;9.41;71.39;99384.41;1722369;83;21018;-71
2022/04/10 00:53:15;;;;;;;3.45;2.20;;;;;;;9.37;71.35;99398.00;1690351;82;21102;-71
2022/04/10 00:55:42;;;;;;;3.50;2.50;;;;;;;9.32;71.51;99407.38;1684295;83;21062;-71
2022/04/10 00:58:10;;;;;;;3.67;2.50;;;;;;;9.27;71.81;99408.73;1668226;83;21723;-71
2022/04/10 01:00:37;;;;;;;3.58;2.60;;;;;;;9.20;72.18;99414.91;1696753;83;21098;-71
2022/04/10 01:03:04;;;;;;;4.92;2.90;;;;;;;9.13;72.44;99414.67;1722836;83;21616;-71
2022/04/10 01:05:33;;;;;;;4.67;3.10;;;;;;;9.04;72.63;99406.20;1701977;82;21329;-71
2022/04/10 01:08:00;;;;;;;5.50;3.30;;;;;;;8.99;72.82;99402.25;1702952;83;21048;-70
2022/04/10 01:10:28;;;;;;;5.92;3.85;;;;;;;8.93;72.95;99400.14;1679827;83;21075;-71
2022/04/10 01:12:55;;;;;;;4.78;3.25;;;;;;;8.90;73.18;99416.66;1704166;83;21710;-72
2022/04/10 01:15:24;;;;;;;5.30;3.40;;;;;;;8.88;73.42;99439.58;1685361;83;21540;-71
2022/04/10 01:17:52;;;;;;;5.28;3.65;;;;;;;8.88;73.63;99451.56;1701177;83;21843;-73
2022/04/10 01:20:19;;;;;;;7.33;4.47;;;;;;;8.86;73.63;99456.36;1687044;83;21203;-71
2022/04/10 01:22:51;;;;;;;7.35;4.60;;;;;;;8.79;73.59;99448.41;1701581;83;26780;-73
2022/04/10 01:25:19;;;;;;;8.75;4.65;;;;;;;8.79;73.59;99448.41;1700632;82;21090;-73
2022/04/10 01:27:47;;;;;;;7.55;5.08;;;;;;;8.79;73.32;99465.71;1687272;82;21050;-72
2022/04/10 01:30:16;;;;;;;10.85;5.85;;;;;;;8.77;73.07;99466.51;1704607;82;21098;-72
2022/04/10 01:32:45;;;;;;;10.23;5.40;;;;;;;8.75;73.00;99474.75;1700747;82;21085;-72
2022/04/10 01:35:15;;;;;;;9.78;5.70;;;;;;;8.75;72.96;99488.59;1702072;82;21597;-71
2022/04/10 01:37:43;;;;;;;11.80;6.20;;;;;;;8.76;72.84;99472.91;1701613;82;21003;-70
2022/04/10 01:40:14;;;;;;;9.15;5.35;;;;;;;8.75;72.72;99473.95;1699536;82;21010;-71
2022/04/10 01:42:42;;;;;;;8.83;4.85;;;;;;;8.73;72.47;99476.90;1720377;83;21956;-70
2022/04/10 01:45:10;;;;;;;11.80;5.67;;;;;;;8.71;72.24;99474.23;1693628;82;21086;-72
2022/04/10 01:47:38;;;;;;;7.87;4.65;;;;;;;8.67;72.06;99473.45;1714001;81;21025;-72
2022/04/10 01:50:07;;;;;;;8.30;5.33;;;;;;;8.68;71.70;99476.91;1699146;84;21521;-72
2022/04/10 01:52:35;;;;;;;7.80;4.72;;;;;;;8.68;71.56;99486.22;1722804;83;21045;-71
2022/04/10 01:55:03;;;;;;;8.20;5.08;;;;;;;8.67;71.20;99485.97;1700433;83;21219;-73
2022/04/10 01:57:31;;;;;;;7.67;5.00;;;;;;;8.66;70.89;99485.71;1698923;82;21173;-72
2022/04/10 01:59:59;;;;;;;8.13;5.10;;;;;;;8.66;70.82;99496.36;1697276;82;21506;-73
2022/04/10 02:02:28;;;;;;;8.63;5.25;;;;;;;8.64;70.64;99497.95;1685468;82;21098;-70
2022/04/10 02:04:55;;;;;;;6.85;5.00;;;;;;;8.63;70.36;99501.69;1691907;82;21039;-71
2022/04/10 02:07:23;;;;;;;6.53;5.03;;;;;;;8.60;70.05;99500.89;1687251;82;21227;-72
2022/04/10 02:09:52;;;;;;;8.50;5.60;;;;;;;8.61;69.81;99516.32;1680029;82;21065;-70
2022/04/10 02:12:20;;;;;;;8.63;5.22;;;;;;;8.59;69.59;99518.47;1707501;81;20975;-71
2022/04/10 02:14:49;;;;;;;6.05;4.58;;;;;;;8.53;69.28;99518.21;1677712;83;21051;-70
2022/04/10 02:17:17;;;;;;;5.25;3.98;;;;;;;8.50;69.17;99524.86;1706031;81;21058;-70
2022/04/10 02:19:44;;;;;;;4.87;3.77;;;;;;;8.44;68.96;99528.05;1680891;83;21246;-71
2022/04/10 02:22:11;;;;;;;4.83;3.45;;;;;;;8.40;68.62;99519.55;1672122;83;21332;-69
2022/04/10 02:24:40;;;;;;;4.90;3.90;;;;;;;8.34;68.47;99523.25;1674317;84;21537;-69
2022/04/10 02:27:08;;;;;;;5.67;3.70;;;;;;;8.30;68.29;99536.83;1672740;82;21080;-70
2022/04/10 02:29:35;;;;;;;5.17;3.40;;;;;;;8.26;68.04;99534.41;1706620;81;21098;-68
2022/04/10 02:32:02;;;;;;;4.87;3.52;;;;;;;8.24;68.00;99554.64;1695085;82;22697;-69
2022/04/10 02:34:31;;;;;;;4.75;3.25;;;;;;;8.21;67.96;99545.33;1704106;82;21063;-71
2022/04/10 02:36:58;;;;;;;4.90;3.52;;;;;;;8.19;67.74;99549.30;1687071;82;21419;-71
2022/04/10 02:39:26;;;;;;;4.72;3.40;;;;;;;8.17;67.59;99550.91;1685930;82;21133;-70
2022/04/10 02:41:53;;;;;;;4.28;3.20;;;;;;;8.17;67.49;99564.22;1684851;82;21126;-70
2022/04/10 02:44:21;;;;;;;3.95;3.12;;;;;;;8.17;67.27;99562.89;1682417;82;21233;-68
2022/04/10 02:46:48;;;;;;;5.85;3.67;;;;;;;8.17;67.08;99568.73;1687586;82;21066;-70
2022/04/10 02:49:16;;;;;;;5.12;3.40;;;;;;;8.16;67.00;99562.62;1686703;82;21124;-72
2022/04/10 02:51:49;;;;;;;4.28;3.08;;;;;;;8.16;66.87;99571.94;1685394;82;21102;-71
2022/04/10 02:54:16;;;;;;;4.25;3.45;;;;;;;8.18;66.88;99570.33;1707468;81;21010;-73
2022/04/10 02:56:45;;;;;;;5.00;3.30;;;;;;;8.19;66.95;99575.40;1711967;81;21043;-72
2022/04/10 02:59:13;;;;;;;5.22;3.87;;;;;;;8.19;66.92;99564.77;1700757;83;21007;-73
2022/04/10 03:01:43;;;;;;;5.35;3.40;;;;;;;8.18;66.83;99569.80;1695211;82;21119;-73
2022/04/10 03:04:10;;;;;;;4.35;3.10;;;;;;;8.16;66.85;99569.27;1702052;82;21058;-72
2022/04/10 03:06:39;;;;;;;4.87;3.27;;;;;;;8.16;66.87;99575.10;1701119;83;20990;-71
2022/04/10 03:09:07;;;;;;;4.95;3.40;;;;;;;8.15;66.83;99577.50;1692699;82;21328;-71
2022/04/10 03:11:36;;;;;;;5.28;3.45;;;;;;;8.16;66.82;99585.74;1704217;83;21012;-71
2022/04/10 03:14:03;;;;;;;5.28;4.22;;;;;;;8.15;66.98;99580.95;1694132;82;21087;-71
2022/04/10 03:16:33;;;;;;;5.60;4.03;;;;;;;8.14;66.94;99582.56;1675939;84;21056;-71
2022/04/10 03:19:00;;;;;;;5.72;4.45;;;;;;;8.12;66.84;99585.47;1692956;84;21514;-71
2022/04/10 03:21:28;;;;;;;7.62;5.28;;;;;;;8.11;66.87;99583.89;1685809;82;21145;-71
2022/04/10 03:23:55;;;;;;;8.53;7.10;;;;;;;8.12;67.01;99582.02;1682855;82;21011;-71
2022/04/10 03:26:23;;;;;;;7.40;6.50;;;;;;;8.11;67.17;99581.77;1711276;81;20996;-72
2022/04/10 03:28:51;;;;;;;7.90;6.15;;;;;;;8.13;67.26;99580.44;1671302;81;20971;-71
2022/04/10 03:31:21;;;;;;;8.30;6.80;;;;;;;8.11;67.42;99578.56;1672283;83;21109;-70
2022/04/10 03:33:48;;;;;;;9.30;7.35;;;;;;;8.08;67.43;99575.11;1671947;83;21855;-71
2022/04/10 03:36:15;;;;;;;9.33;7.22;;;;;;;8.05;67.53;99571.64;1704082;81;21109;-70
2022/04/10 03:38:42;;;;;;;8.23;6.70;;;;;;;8.04;67.62;99580.69;1684240;82;21539;-70
2022/04/10 03:41:10;;;;;;;8.98;7.40;;;;;;;8.03;67.74;99592.40;1708273;81;21015;-70
2022/04/10 03:43:37;;;;;;;9.73;6.90;;;;;;;8.00;67.85;99590.27;1685057;83;21542;-70
2022/04/10 03:46:05;;;;;;;8.83;7.05;;;;;;;7.99;67.97;99593.97;1678732;83;21153;-69
2022/04/10 03:48:34;;;;;;;6.85;6.05;;;;;;;7.98;68.08;99595.03;1679902;83;21004;-70
2022/04/10 03:51:01;;;;;;;9.68;6.30;;;;;;;7.99;68.26;99597.95;1674829;83;21138;-71
2022/04/10 03:53:30;;;;;;;7.50;5.58;;;;;;;7.97;68.30;99598.77;1675262;83;21110;-71
2022/04/10 03:55:57;;;;;;;6.03;4.83;;;;;;;7.97;68.32;99596.11;1712037;81;21010;-70
2022/04/10 03:58:25;;;;;;;5.83;4.80;;;;;;;7.96;68.42;99597.97;1700959;81;21252;-71
2022/04/10 04:00:52;;;;;;;6.50;5.10;;;;;;;7.96;68.52;99603.29;1701814;81;21031;-71
2022/04/10 04:03:20;;;;;;;5.83;4.78;;;;;;;7.98;68.61;99601.69;1701705;81;21075;-71
2022/04/10 04:05:49;;;;;;;6.00;4.20;;;;;;;8.02;68.72;99601.42;1705886;81;21066;-71
2022/04/10 04:08:16;;;;;;;6.03;3.83;;;;;;;8.03;68.67;99611.02;1710067;81;21046;-70
2022/04/10 04:10:44;;;;;;;7.50;5.33;;;;;;;8.04;68.70;99608.62;1701497;83;21876;-71
2022/04/10 04:13:15;;;;;;;7.95;6.05;;;;;;;8.08;68.75;99614.20;1704062;81;20955;-69
2022/04/10 04:15:45;;;;;;;6.90;5.80;;;;;;;8.10;68.66;99619.53;1708329;81;21046;-70
2022/04/10 04:18:14;;;;;;;6.00;4.87;;;;;;;8.11;68.61;99619.00;1707900;81;21038;-70
2022/04/10 04:20:42;;;;;;;5.72;4.50;;;;;;;8.13;68.54;99624.33;1704863;81;21145;-68
2022/04/10 04:23:10;;;;;;;6.03;5.00;;;;;;;8.14;68.47;99626.45;1706120;81;21872;-69
2022/04/10 04:25:37;;;;;;;7.00;5.03;;;;;;;8.15;68.45;99634.69;1702365;81;21706;-70
2022/04/10 04:28:05;;;;;;;7.30;5.80;;;;;;;8.20;68.47;99642.16;1705187;81;21069;-69
2022/04/10 04:30:33;;;;;;;7.58;6.60;;;;;;;8.25;68.46;99641.89;1675251;83;20984;-69
2022/04/10 04:33:02;;;;;;;8.25;6.70;;;;;;;8.30;68.51;99641.91;1676806;83;20992;-70
2022/04/10 04:35:30;;;;;;;6.80;6.08;;;;;;;8.36;68.44;99644.31;1706832;81;21242;-70
2022/04/10 04:38:00;;;;;;;7.40;5.12;;;;;;;8.42;68.37;99646.46;1683396;83;21644;-70
2022/04/10 04:40:28;;;;;;;6.37;4.85;;;;;;;8.44;68.25;99660.31;1704387;81;21533;-70
2022/04/10 04:42:57;;;;;;;6.70;5.03;;;;;;;8.47;68.17;99668.31;1682093;82;21142;-70
2022/04/10 04:45:25;;;;;;;6.60;5.90;;;;;;;8.50;68.13;99667.24;1686749;82;21402;-70
2022/04/10 04:48:03;;;;;;;5.90;4.95;;;;;;;8.52;67.86;99669.62;1703557;81;21132;-71
2022/04/10 04:50:31;;;;;;;6.58;5.50;;;;;;;8.52;67.74;99671.75;1696276;83;21057;-71
2022/04/10 04:52:59;;;;;;;6.53;4.92;;;;;;;8.52;67.66;99685.06;1675596;84;21109;-71
2022/04/10 04:55:27;;;;;;;5.30;4.17;;;;;;;8.54;67.59;99692.26;1687762;81;21569;-71
2022/04/10 04:57:55;;;;;;;6.25;4.83;;;;;;;8.56;67.53;99690.68;1684975;82;21128;-70
2022/04/10 05:00:24;;;;;;;5.80;4.47;;;;;;;8.61;67.48;99698.12;1712106;81;21087;-71
2022/04/10 05:02:53;;;;;;;6.22;5.20;;;;;;;8.66;67.33;99702.66;1670420;83;21091;-71
2022/04/10 05:05:21;;;;;;;6.78;5.45;;;;;;;8.67;67.01;99699.73;1710819;81;21603;-71
2022/04/10 05:07:49;;;;;;;5.67;4.50;;;;;;;8.67;66.78;99702.92;1702898;84;21023;-72
2022/04/10 05:10:16;;;;;;;6.75;5.55;;;;;;;8.70;66.71;99702.39;1698936;82;21116;-70
2022/04/10 05:12:43;;;;;;;8.10;4.62;;;;;;;8.71;66.50;99709.31;1683296;82;21158;-70
2022/04/10 05:15:12;;;;;;;5.28;4.00;;;;;;;8.73;66.56;99707.73;1679673;82;21078;-70
2022/04/10 05:17:41;;;;;;;6.83;5.00;;;;;;;8.77;66.55;99704.80;1677498;84;21059;-70
2022/04/10 05:20:11;;;;;;;6.35;5.00;;;;;;;8.82;66.53;99706.14;1681638;82;21065;-70
2022/04/10 05:22:40;;;;;;;7.00;5.53;;;;;;;8.89;66.65;99713.33;1684095;82;21419;-69
2022/04/10 05:25:09;;;;;;;6.75;5.20;;;;;;;8.93;66.33;99713.06;1684921;82;21129;-71
2022/04/10 05:27:38;;;;;;;6.83;5.78;;;;;;;8.97;66.13;99715.45;1682725;82;21047;-71
2022/04/10 05:30:07;;;;;;;6.25;4.95;;;;;;;9.03;66.11;99716.25;1682011;82;21407;-71
2022/04/10 05:32:41;;;;;;;6.45;5.70;;;;;;;9.11;66.06;99713.03;1683056;82;21082;-71
2022/04/10 05:35:05;;;;;;;6.70;5.87;;;;;;;9.15;65.66;99716.25;1684224;82;20979;-70
2022/04/10 05:37:33;;;;;;;8.13;6.80;;;;;;;9.16;65.41;99719.17;1703478;82;21175;-71
2022/04/10 05:40:02;;;;;;;7.33;6.28;;;;;;;9.19;65.07;99719.17;1688007;83;20963;-71
2022/04/10 05:42:31;;;;;;;10.28;7.60;;;;;;;9.18;64.76;99717.59;1703361;82;21035;-72
2022/04/10 05:45:03;;;;;;;9.58;6.72;;;;;;;9.19;64.52;99712.52;1704336;82;21008;-71
2022/04/10 05:47:30;;;;;;;7.30;6.58;;;;;;;9.23;64.73;99724.77;1701964;83;21560;-71
2022/04/10 05:49:58;;;;;;;8.38;6.10;;;;;;;9.26;64.53;99719.70;1693803;82;21079;-71
2022/04/10 05:52:28;;;;;;;10.45;7.75;;;;;;;9.32;64.19;99717.83;1685928;82;21352;-70
2022/04/10 05:54:59;;;;;;;8.28;6.33;;;;;;;9.31;64.01;99718.37;1688592;82;21585;-69
2022/04/10 05:57:27;;;;;;;8.20;6.97;;;;;;;9.35;64.05;99724.75;1707387;81;22292;-72
2022/04/10 05:59:55;;;;;;;8.03;6.83;;;;;;;9.39;64.09;99725.80;1709567;81;20967;-71
2022/04/10 06:02:22;;;;;;;7.65;6.45;;;;;;;9.45;64.05;99718.61;1724486;83;21259;-71
2022/04/10 06:04:50;;;;;;;9.90;7.12;;;;;;;9.52;63.82;99725.78;1712928;82;21169;-71
2022/04/10 06:07:17;;;;;;;9.95;7.30;;;;;;;9.55;63.36;99726.58;1736890;81;20955;-71
2022/04/10 06:09:45;;;;;;;8.65;6.85;;;;;;;9.58;63.08;99729.25;1714230;81;21050;-70
2022/04/10 06:12:14;;;;;;;8.75;6.70;;;;;;;9.61;63.11;99734.05;1698252;83;21027;-71
2022/04/10 06:14:44;;;;;;;8.03;6.30;;;;;;;9.66;62.71;99727.89;1709536;81;21113;-71
2022/04/10 06:17:12;;;;;;;8.43;6.58;;;;;;;9.69;62.54;99734.02;1671115;82;21065;-72
2022/04/10 06:19:39;;;;;;;6.70;5.70;;;;;;;9.73;62.55;99726.52;1702140;81;21030;-71
2022/04/10 06:22:08;;;;;;;7.05;5.30;;;;;;;9.76;62.08;99725.98;1686624;83;21051;-70
2022/04/10 06:24:36;;;;;;;5.45;4.20;;;;;;;9.78;62.04;99729.19;1668557;81;21088;-70
2022/04/10 06:27:04;;;;;;;5.85;5.05;;;;;;;9.81;61.58;99732.64;1685459;82;22831;-70
2022/04/10 06:29:32;;;;;;;6.75;4.53;;;;;;;9.91;61.64;99735.81;1682464;82;21058;-71
2022/04/10 06:32:01;;;;;;;5.62;4.12;;;;;;;9.98;61.15;99732.31;1686660;82;21102;-70
2022/04/10 06:34:30;;;;;;;6.33;4.10;;;;;;;10.04;61.00;99736.56;1713586;81;21593;-71
2022/04/10 06:36:58;;;;;;;5.70;3.83;;;;;;;10.08;59.80;99740.27;1704879;81;20994;-70
2022/04/10 06:39:25;;;;;;;5.15;3.47;;;;;;;10.07;59.66;99743.23;1708453;81;21194;-73
2022/04/10 06:41:55;;;;;;;5.97;3.55;;;;;;;10.04;59.35;99755.23;1705973;81;21006;-71
2022/04/10 06:44:24;;;;;;;7.25;5.20;;;;;;;10.04;59.28;99745.91;1678221;82;20991;-71
2022/04/10 06:46:53;;;;;;;8.90;6.65;;;;;;;10.06;59.53;99754.95;1685121;82;20982;-70
2022/04/10 06:49:22;;;;;;;8.55;7.12;;;;;;;10.10;59.86;99756.00;1705290;81;22179;-70
2022/04/10 06:51:49;;;;;;;9.53;6.47;;;;;;;10.18;60.11;99760.78;1686886;82;21292;-71
2022/04/10 06:54:20;;;;;;;6.53;5.50;;;;;;;10.30;60.23;99766.64;1698762;81;21049;-70
2022/04/10 06:56:49;;;;;;;8.03;6.72;;;;;;;10.40;59.85;99761.78;1684648;82;21066;-71
2022/04/10 06:59:17;;;;;;;7.20;6.35;;;;;;;10.43;59.72;99774.59;1682645;82;21074;-70
2022/04/10 07:01:44;;;;;;;7.33;5.80;;;;;;;10.46;59.52;99766.03;1684582;82;20995;-70
2022/04/10 07:04:13;;;;;;;6.65;5.03;;;;;;;10.46;59.10;99780.72;1687619;82;21152;-71
2022/04/10 07:06:46;;;;;;;7.15;5.55;;;;;;;10.46;59.22;99778.05;1687052;82;21661;-70
2022/04/10 07:09:10;;;;;;;4.85;3.90;;;;;;;10.46;59.27;99778.55;1685172;82;21090;-70
2022/04/10 07:11:37;;;;;;;5.47;4.12;;;;;;;10.45;58.85;99783.10;1685424;82;21054;-70
2022/04/10 07:14:07;;;;;;;5.25;4.05;;;;;;;10.42;58.63;99794.33;1682486;82;21608;-69
2022/04/10 07:16:36;;;;;;;5.58;4.30;;;;;;;10.42;58.69;99797.54;1688717;82;21207;-70
2022/04/10 07:19:03;;;;;;;6.03;4.65;;;;;;;10.44;58.72;99798.87;1687239;82;21106;-70
2022/04/10 07:24:18;;;;;;;7.28;5.10;;;;;;;10.52;58.31;99802.83;1685588;82;21090;-70
2022/04/10 07:26:49;;;;;;;9.15;5.30;;;;;;;10.48;58.00;99806.59;1685342;82;21184;-71
2022/04/10 07:29:17;;;;;;;6.75;4.80;;;;;;;10.44;58.11;99810.88;1682401;82;21482;-70
2022/04/10 07:31:46;;;;;;;7.67;5.97;;;;;;;10.44;58.21;99812.22;1681992;82;37462;-69
2022/04/10 07:34:15;;;;;;;6.55;4.95;;;;;;;10.47;57.88;99814.34;1684564;82;21582;-68
2022/04/10 07:36:56;;;;;;;7.83;5.60;;;;;;;10.50;57.85;99810.33;1690146;82;20990;-69
2022/04/10 07:39:24;;;;;;;7.50;5.12;;;;;;;10.53;57.82;99814.58;1694154;82;21071;-70
2022/04/10 07:41:52;;;;;;;7.67;5.50;;;;;;;10.56;57.63;99811.37;1686144;82;21542;-70
2022/04/10 07:44:21;;;;;;;6.33;4.58;;;;;;;10.61;57.10;99817.75;1676281;84;21054;-70
2022/04/10 07:49:36;;;;;;;5.65;3.87;;;;;;;10.59;57.03;99818.01;1683588;82;21814;-70
2022/04/10 07:52:06;;;;;;;6.35;3.90;;;;;;;10.61;57.13;99821.75;1707927;81;21006;-70
2022/04/10 07:54:35;;;;;;;6.22;5.17;;;;;;;10.69;57.32;99818.49;1677296;83;22054;-70
2022/04/10 07:57:04;;;;;;;7.22;4.90;;;;;;;10.78;57.11;99814.97;1680788;83;20960;-69
2022/04/10 07:59:32;;;;;;;8.35;5.20;;;;;;;10.89;56.70;99821.58;1709577;81;20995;-69
2022/04/10 08:01:59;;;;;;;7.47;4.30;;;;;;;10.92;56.21;99815.14;1685975;82;21484;-70
2022/04/10 08:04:29;;;;;;;7.12;4.40;;;;;;;10.96;56.11;99818.09;1689975;82;21577;-70
2022/04/10 08:07:04;;;;;;;5.10;4.10;;;;;;;10.98;55.88;99827.40;1680124;82;21126;-70
2022/04/10 08:09:32;;;;;;;6.28;4.22;;;;;;;11.03;55.89;99822.03;1685332;82;21098;-70
2022/04/10 08:12:01;;;;;;;6.17;4.63;;;;;;;11.10;55.88;99825.73;1690782;82;21176;-70
2022/04/10 08:14:30;;;;;;;7.22;4.83;;;;;;;11.14;55.51;99828.64;1682042;82;21406;-71
2022/04/10 08:16:57;;;;;;;6.27;4.27;;;;;;;11.15;55.44;99828.89;1681328;82;21078;-70
2022/04/10 08:19:24;;;;;;;7.13;4.17;;;;;;;11.14;55.16;99823.30;1683743;82;21500;-71
2022/04/10 08:21:51;;;;;;;5.33;3.80;;;;;;;11.13;54.91;99833.73;1710291;81;21106;-70
2022/04/10 08:24:18;;;;;;;5.43;4.13;;;;;;;11.09;55.45;99830.83;1703675;81;21271;-70
2022/04/10 08:26:46;;;;;;;5.15;4.17;;;;;;;11.13;55.80;99834.53;1707937;81;21256;-71
2022/04/10 08:29:14;;;;;;;6.33;4.13;;;;;;;11.18;55.83;99839.03;1706850;81;20983;-71
2022/04/10 08:31:41;;;;;;;5.40;4.00;;;;;;;11.19;55.73;99832.63;1707760;81;22283;-72
2022/04/10 08:36:39;;;;;;;5.70;4.40;;;;;;;11.23;55.24;99832.33;1699365;77;10000534;-70
2022/04/10 08:39:07;;;;;;;5.97;4.67;;;;;;;11.14;55.02;99837.45;1780858;80;22801;-69
2022/04/10 08:41:36;;;;;;;5.70;4.50;;;;;;;11.10;55.27;99840.97;1779536;80;21049;-70
2022/04/10 08:44:04;;;;;;;8.67;4.60;;;;;;;11.07;55.44;99845.53;1769036;79;21610;-70
2022/04/10 08:46:35;;;;;;;7.58;4.75;;;;;;;11.06;55.68;99838.61;1763070;80;21137;-70
2022/04/10 08:49:02;;;;;;;7.00;5.62;;;;;;;11.06;55.79;99840.73;1775958;80;21022;-69
2022/04/10 08:51:31;;;;;;;5.87;5.03;;;;;;;11.06;55.89;99842.61;1778339;80;21027;-69
2022/04/10 08:54:00;;;;;;;5.80;4.95;;;;;;;11.06;56.21;99835.39;1773844;80;21082;-70
2022/04/10 08:56:27;;;;;;;6.67;4.27;;;;;;;11.11;56.41;99844.69;1796737;79;21046;-71
2022/04/10 08:58:55;;;;;;;6.33;4.30;;;;;;;11.17;56.75;99849.47;1780092;80;21626;-71
2022/04/10 09:01:22;;;;;;;7.40;4.30;;;;;;;11.21;56.33;99845.95;1768677;80;21232;-70
2022/04/10 09:03:49;;;;;;;7.13;4.97;;;;;;;11.25;56.34;99843.01;1789130;79;21762;-71
2022/04/10 09:06:16;;;;;;;7.33;5.00;;;;;;;11.34;56.54;99850.42;1785735;80;21317;-72
2022/04/10 09:08:45;;;;;;;6.10;5.30;;;;;;;11.37;56.87;99850.66;1775195;79;21254;-71
2022/04/10 09:11:14;;;;;;;6.77;5.27;;;;;;;11.42;56.73;99857.86;1794561;79;21506;-69
2022/04/10 09:13:54;;;;;;;6.70;5.17;;;;;;;11.42;56.62;99851.97;1784988;78;21324;-69
2022/04/10 09:16:25;;;;;;;6.03;5.00;;;;;;;11.44;56.89;99855.14;1777059;78;21345;-70
2022/04/10 09:19:01;;;;;;;7.20;5.87;;;;;;;11.42;56.62;99856.52;1768566;79;21205;-69
2022/04/10 09:21:35;;;;;;;6.87;5.60;;;;;;;11.40;57.06;99859.46;1787830;79;21221;-71
2022/04/10 09:24:05;;;;;;;7.10;6.33;;;;;;;11.43;57.17;99855.44;1790727;79;21280;-71
2022/04/10 09:26:55;;;;;;;5.97;5.00;;;;;;;11.48;57.50;99857.54;1792193;79;21258;-68
2022/04/10 09:29:23;;;;;;;7.17;5.20;;;;;;;11.54;57.40;99850.25;1793897;79;21167;-69
2022/04/10 09:31:54;;;;;;;7.30;5.33;;;;;;;11.59;57.25;99853.44;1798663;79;21787;-69
2022/04/10 09:34:22;;;;;;;8.17;5.77;;;;;;;11.59;57.21;99843.53;1778432;79;21258;-69
2022/04/10 09:41:44;;;;;;;6.60;5.90;;;;;;;11.62;56.93;99849.66;1786880;79;21957;-68
2022/04/10 09:44:20;;;;;;;8.27;5.97;;;;;;;11.63;56.83;99846.44;1776533;79;21295;-69
2022/04/10 09:47:06;;;;;;;5.93;5.00;;;;;;;11.70;56.88;99857.61;1778377;79;21368;-70
2022/04/10 09:49:35;;;;;;;6.40;5.23;;;;;;;11.74;56.61;99857.30;1772988;79;21789;-70
2022/04/10 09:52:11;;;;;;;6.13;4.57;;;;;;;11.69;56.56;99852.80;1772685;78;21286;-69
2022/04/10 09:54:46;;;;;;;6.20;5.37;;;;;;;11.64;56.12;99852.84;1818584;78;21255;-70
2022/04/10 09:57:16;;;;;;;6.30;4.83;;;;;;;11.63;56.42;99856.59;1774896;79;21957;-69
2022/04/10 09:59:48;;;;;;;6.87;5.23;;;;;;;11.64;56.53;99848.03;1768688;79;21240;-70
2022/04/10 10:02:21;;;;;;;7.20;4.97;;;;;;;11.59;56.84;99853.44;1788847;79;21783;-74
2022/04/10 10:04:50;;;;;;;6.07;5.07;;;;;;;11.54;56.95;99860.95;1787535;79;21252;-73
2022/04/10 10:07:20;;;;;;;6.40;4.90;;;;;;;11.46;57.22;99862.36;1780479;79;21312;-74
2022/04/10 10:09:49;;;;;;;5.70;4.78;;;;;;;11.45;57.39;99862.63;1793767;79;21108;-74
2022/04/10 10:12:16;;;;;;;6.20;4.80;;;;;;;11.41;57.01;99869.06;1798069;79;21576;-74
2022/04/10 10:14:45;;;;;;;6.10;4.43;;;;;;;11.38;56.92;99874.97;1783965;79;21219;-75
2022/04/10 10:17:14;;;;;;;5.93;4.50;;;;;;;11.38;56.80;99869.63;1795215;79;22365;-73
2022/04/10 10:19:43;;;;;;;7.47;4.63;;;;;;;11.38;56.46;99876.31;1779304;79;21370;-74
2022/04/10 10:22:13;;;;;;;4.80;4.30;;;;;;;11.37;56.04;99872.05;1781057;79;21290;-78
2022/04/10 10:25:11;;;;;;;6.70;4.73;;;;;;;11.34;56.20;99873.14;1780334;79;21186;-77
2022/04/10 10:28:27;;;;;;;6.13;4.00;;;;;;;11.34;56.03;99877.95;1794191;79;21093;-75
2022/04/10 10:31:12;;;;;;;5.77;3.83;;;;;;;11.34;55.80;99879.28;1789404;78;21229;-78
2022/04/10 10:33:49;;;;;;;5.00;4.00;;;;;;;11.34;54.94;99884.63;1768656;79;21403;-75
2022/04/10 10:36:31;;;;;;;6.20;3.87;;;;;;;11.28;54.73;99881.73;1776381;79;21209;-73
2022/04/10 10:38:56;;;;;;;6.08;4.20;;;;;;;11.22;55.35;99885.00;1798009;79;21155;-78
2022/04/10 10:41:29;;;;;;;6.50;4.43;;;;;;;11.16;54.58;99885.30;1778495;79;21093;-82
2022/04/10 10:43:59;;;;;;;6.77;5.10;;;;;;;10.99;54.70;99886.47;1793114;79;21147;-75
2022/04/10 10:46:35;;;;;;;6.43;4.57;;;;;;;10.88;55.52;99884.11;1767321;79;21482;-74
2022/04/10 10:49:19;;;;;;;7.08;4.20;;;;;;;10.82;56.08;99894.02;1780743;79;21674;-73
2022/04/10 10:51:53;;;;;;;6.83;4.72;;;;;;;10.86;56.36;99894.27;1798429;79;21062;-73
2022/04/10 10:54:34;;;;;;;6.57;4.70;;;;;;;10.96;56.81;99895.58;1772129;79;21078;-70
2022/04/10 10:57:25;;;;;;;;;;;;;;;11.12;57.13;99893.59;1772560;79;22143;-72
2022/04/10 10:59:53;;;;;;;5.00;3.55;;;;;;;11.29;56.99;99894.05;1771715;79;20473;-74
2022/04/10 11:02:21;;;;;;;3.98;3.17;;;;;;;11.36;55.58;99899.87;1742924;81;21102;-73
2022/04/10 11:04:50;;;;;;;4.63;3.40;;;;;;;11.26;55.32;99886.58;1772222;79;21086;-73
2022/04/10 11:07:24;;;;;;;4.95;3.70;;;;;;;11.15;55.64;99892.50;1769843;79;22177;-74
2022/04/10 11:10:09;;;;;;;5.87;4.60;;;;;;;11.04;55.54;99890.97;1789876;78;21285;-73
2022/04/10 11:12:50;;;;;;;5.40;3.97;;;;;;;10.98;57.05;99880.84;1767032;79;21058;-76
2022/04/10 11:15:22;;;;;;;4.57;3.33;;;;;;;11.03;57.85;99888.05;1785882;79;21710;-73
2022/04/10 11:17:52;;;;;;;5.10;3.30;;;;;;;11.16;58.39;99889.31;1785208;78;21284;-71
2022/04/10 11:20:24;;;;;;;6.77;4.40;;;;;;;11.29;57.94;99888.69;1771443;79;21255;-73
2022/04/10 11:22:58;;;;;;;4.63;3.50;;;;;;;11.34;57.25;99884.63;1770388;78;21852;-73
2022/04/10 11:25:31;;;;;;;5.58;3.20;;;;;;;11.35;56.37;99901.47;1783724;79;21738;-73
2022/04/10 11:28:07;;;;;;;4.50;3.10;;;;;;;11.24;56.10;99890.05;1793773;79;21309;-73
2022/04/10 11:30:35;;;;;;;4.83;3.40;;;;;;;11.13;55.28;99891.20;1765628;79;21600;-73
2022/04/10 11:33:05;;;;;;;6.58;3.83;;;;;;;10.99;55.92;99895.00;1785357;79;21141;-73
2022/04/10 11:35:34;;;;;;;5.77;3.60;;;;;;;10.90;56.29;99894.00;1792323;79;21053;-73
2022/04/10 11:38:17;;;;;;;4.67;3.37;;;;;;;10.80;56.06;99892.17;1784708;79;21373;-73
2022/04/10 11:40:48;;;;;;;5.87;4.13;;;;;;;10.67;56.63;99896.23;1776129;79;21584;-73
2022/04/10 11:43:19;;;;;;;5.78;3.65;;;;;;;10.58;57.65;99894.41;1787555;79;21743;-74
2022/04/10 11:45:57;;;;;;;4.78;3.42;;;;;;;10.53;58.53;99896.56;1794702;79;21025;-72
2022/04/10 11:48:24;;;;;;;6.70;3.83;;;;;;;10.50;59.03;99902.45;1799297;78;21021;-72
2022/04/10 11:50:52;;;;;;;5.50;3.50;;;;;;;10.51;59.10;99905.38;1743633;79;21073;-72
2022/04/10 11:53:19;;;;;;;5.50;3.40;;;;;;;10.49;58.81;99906.97;1794649;79;21628;-71
2022/04/10 11:55:48;;;;;;;5.53;3.62;;;;;;;10.45;58.99;99901.11;1792598;79;21110;-72
2022/04/10 11:58:21;;;;;;;5.62;3.62;;;;;;;10.41;59.19;99906.74;1797734;78;21101;-71
2022/04/10 12:00:59;;;;;;;5.40;3.52;;;;;;;10.32;59.79;99909.95;1806968;78;21609;-72
2022/04/10 12:03:29;;;;;;;4.60;3.27;;;;;;;10.19;60.52;99901.68;1784240;78;21577;-74